Time;durP1;ratioP1;P1;durP2;ratioP2;P2;SDS_P1;SDS_P2;PMS_P1;PMS_P2;Temp;Humidity;BMP_temperature;BMP_pressure;BME280_temperature;BME280_humidity;BME280_pressure;Samples;Min_cycle;Max_cycle;Signal;HPM_P1;HPM_P2
2020/02/28 00:00:55;;;;;;;2.85;2.65;;;;;;;1.41;95.71387;94205;;;;
2020/02/28 00:02:06;;;;;;;2.85;2.65;;;;;;;1.41;95.71387;94205;;;;
2020/02/28 00:03:07;;;;;;;2.85;2.65;;;;;;;1.41;95.71387;94205;;;;
2020/02/28 00:04:08;;;;;;;2.85;2.65;;;;;;;1.41;95.71387;94205;;;;
2020/02/28 00:05:17;;;;;;;2.85;2.65;;;;;;;1.41;95.71387;94205;;;;
2020/02/28 00:06:18;;;;;;;2.85;2.65;;;;;;;1.41;95.71387;94205;;;;
2020/02/28 00:07:23;;;;;;;2.85;2.65;;;;;;;1.39;96.11328;94269.12;;;;
2020/02/28 00:08:23;;;;;;;2.85;2.65;;;;;;;1.39;96.11328;94269.12;;;;
2020/02/28 00:09:25;;;;;;;2.85;2.65;;;;;;;1.39;96.11328;94269.12;;;;
2020/02/28 00:10:40;;;;;;;2.85;2.65;;;;;;;1.39;96.11328;94269.12;;;;
2020/02/28 00:11:41;;;;;;;2.85;2.65;;;;;;;1.39;96.11328;94269.12;;;;
2020/02/28 00:12:41;;;;;;;2.85;2.65;;;;;;;1.39;96.11328;94269.12;;;;
2020/02/28 00:13:42;;;;;;;2.85;2.65;;;;;;;1.39;96.11328;94269.12;;;;
2020/02/28 00:14:43;;;;;;;2.85;2.65;;;;;;;1.39;96.11328;94269.12;;;;
2020/02/28 00:15:44;;;;;;;2.85;2.65;;;;;;;1.39;96.11328;94269.12;;;;
2020/02/28 00:16:46;;;;;;;2.85;2.65;;;;;;;1.39;96.11328;94269.12;;;;
2020/02/28 00:17:47;;;;;;;2.75;2.55;;;;;;;1.33;96.4668;94291.61;;;;
2020/02/28 00:18:47;;;;;;;2.75;2.55;;;;;;;1.33;96.4668;94291.61;;;;
2020/02/28 00:19:49;;;;;;;2.75;2.55;;;;;;;1.33;96.4668;94291.61;;;;
2020/02/28 00:20:50;;;;;;;2.75;2.55;;;;;;;1.33;96.4668;94291.61;;;;
2020/02/28 00:21:51;;;;;;;2.75;2.55;;;;;;;1.33;96.4668;94291.61;;;;
2020/02/28 00:22:52;;;;;;;2.75;2.55;;;;;;;1.33;96.4668;94291.61;;;;
2020/02/28 00:23:56;;;;;;;2.75;2.55;;;;;;;1.33;96.4668;94291.61;;;;
2020/02/28 00:24:59;;;;;;;2.75;2.55;;;;;;;1.33;96.4668;94291.61;;;;
2020/02/28 00:26:00;;;;;;;2.75;2.55;;;;;;;1.33;96.4668;94291.61;;;;
2020/02/28 00:27:00;;;;;;;2.75;2.55;;;;;;;1.33;96.4668;94291.61;;;;
2020/02/28 00:28:01;;;;;;;2.75;2.55;;;;;;;1.33;96.4668;94291.61;;;;
2020/02/28 00:29:02;;;;;;;3.1;2.8;;;;;;;1.35;96.78125;94325.05;;;;
2020/02/28 00:30:03;;;;;;;3.1;2.8;;;;;;;1.35;96.78125;94325.05;;;;
2020/02/28 00:31:08;;;;;;;3.1;2.8;;;;;;;1.35;96.78125;94325.05;;;;
2020/02/28 00:32:08;;;;;;;3.1;2.8;;;;;;;1.35;96.78125;94325.05;;;;
2020/02/28 00:33:10;;;;;;;3.1;2.8;;;;;;;1.35;96.78125;94325.05;;;;
2020/02/28 00:34:12;;;;;;;3.1;2.8;;;;;;;1.35;96.78125;94325.05;;;;
2020/02/28 00:35:13;;;;;;;3.1;2.8;;;;;;;1.35;96.78125;94325.05;;;;
2020/02/28 00:36:16;;;;;;;3.1;2.8;;;;;;;1.35;96.78125;94325.05;;;;
2020/02/28 00:37:20;;;;;;;3.1;2.8;;;;;;;1.35;96.78125;94325.05;;;;
2020/02/28 00:38:21;;;;;;;3.1;2.8;;;;;;;1.35;96.78125;94325.05;;;;
2020/02/28 00:39:22;;;;;;;3.3;3;;;;;;;1.32;96.55664;94362.7;;;;
2020/02/28 00:40:39;;;;;;;3.3;3;;;;;;;1.32;96.55664;94362.7;;;;
2020/02/28 00:41:40;;;;;;;3.3;3;;;;;;;1.32;96.55664;94362.7;;;;
2020/02/28 00:42:40;;;;;;;3.3;3;;;;;;;1.32;96.55664;94362.7;;;;
2020/02/28 00:43:42;;;;;;;3.3;3;;;;;;;1.32;96.55664;94362.7;;;;
2020/02/28 00:44:43;;;;;;;3.3;3;;;;;;;1.32;96.55664;94362.7;;;;
2020/02/28 00:45:43;;;;;;;3.3;3;;;;;;;1.32;96.55664;94362.7;;;;
2020/02/28 00:46:44;;;;;;;3.3;3;;;;;;;1.32;96.55664;94362.7;;;;
2020/02/28 00:47:44;;;;;;;3.3;3;;;;;;;1.32;96.55664;94362.7;;;;
2020/02/28 00:48:47;;;;;;;3.3;3;;;;;;;1.32;96.55664;94362.7;;;;
2020/02/28 00:49:48;;;;;;;3.35;3.05;;;;;;;1.34;96.7998;94391.65;;;;
2020/02/28 00:50:49;;;;;;;3.35;3.05;;;;;;;1.34;96.7998;94391.65;;;;
2020/02/28 00:51:52;;;;;;;3.35;3.05;;;;;;;1.34;96.7998;94391.65;;;;
2020/02/28 00:52:53;;;;;;;3.35;3.05;;;;;;;1.34;96.7998;94391.65;;;;
2020/02/28 00:53:56;;;;;;;3.35;3.05;;;;;;;1.34;96.7998;94391.65;;;;
2020/02/28 00:54:56;;;;;;;3.35;3.05;;;;;;;1.34;96.7998;94391.65;;;;
2020/02/28 00:55:57;;;;;;;3.35;3.05;;;;;;;1.34;96.7998;94391.65;;;;
2020/02/28 00:57:02;;;;;;;3.35;3.05;;;;;;;1.34;96.7998;94391.65;;;;
2020/02/28 00:58:03;;;;;;;3.35;3.05;;;;;;;1.34;96.7998;94391.65;;;;
2020/02/28 00:59:09;;;;;;;3.35;3.05;;;;;;;1.34;96.7998;94391.65;;;;
2020/02/28 01:00:10;;;;;;;4.1;3.8;;;;;;;1.29;96.68555;94411.38;;;;
2020/02/28 01:01:21;;;;;;;4.1;3.8;;;;;;;1.29;96.68555;94411.38;;;;
2020/02/28 01:02:31;;;;;;;4.1;3.8;;;;;;;1.29;96.68555;94411.38;;;;
2020/02/28 01:03:45;;;;;;;4.1;3.8;;;;;;;1.29;96.68555;94411.38;;;;
2020/02/28 01:04:49;;;;;;;4.1;3.8;;;;;;;1.29;96.68555;94411.38;;;;
2020/02/28 01:05:49;;;;;;;4.1;3.8;;;;;;;1.29;96.68555;94411.38;;;;
2020/02/28 01:06:50;;;;;;;4.1;3.8;;;;;;;1.29;96.68555;94411.38;;;;
2020/02/28 01:07:51;;;;;;;4.1;3.8;;;;;;;1.29;96.68555;94411.38;;;;
2020/02/28 01:08:52;;;;;;;4.1;3.8;;;;;;;1.29;96.68555;94411.38;;;;
2020/02/28 01:09:53;;;;;;;4.1;3.8;;;;;;;1.29;96.68555;94411.38;;;;
2020/02/28 01:10:59;;;;;;;4.400001;4;;;;;;;1.28;96.74609;94443.87;;;;
2020/02/28 01:12:04;;;;;;;4.400001;4;;;;;;;1.28;96.74609;94443.87;;;;
2020/02/28 01:13:07;;;;;;;4.400001;4;;;;;;;1.28;96.74609;94443.87;;;;
2020/02/28 01:14:13;;;;;;;4.400001;4;;;;;;;1.28;96.74609;94443.87;;;;
2020/02/28 01:15:13;;;;;;;4.400001;4;;;;;;;1.28;96.74609;94443.87;;;;
2020/02/28 01:16:14;;;;;;;4.400001;4;;;;;;;1.28;96.74609;94443.87;;;;
2020/02/28 01:17:15;;;;;;;4.400001;4;;;;;;;1.28;96.74609;94443.87;;;;
2020/02/28 01:18:16;;;;;;;4.400001;4;;;;;;;1.28;96.74609;94443.87;;;;
2020/02/28 01:19:20;;;;;;;4.400001;4;;;;;;;1.28;96.74609;94443.87;;;;
2020/02/28 01:20:20;;;;;;;4.400001;4;;;;;;;1.28;96.74609;94443.87;;;;
2020/02/28 01:21:24;;;;;;;5;4.500001;;;;;;;1.2;96.4248;94474.64;;;;
2020/02/28 01:22:25;;;;;;;5;4.500001;;;;;;;1.2;96.4248;94474.64;;;;
2020/02/28 01:23:25;;;;;;;5;4.500001;;;;;;;1.2;96.4248;94474.64;;;;
2020/02/28 01:24:26;;;;;;;5;4.500001;;;;;;;1.2;96.4248;94474.64;;;;
2020/02/28 01:25:27;;;;;;;5;4.500001;;;;;;;1.2;96.4248;94474.64;;;;
2020/02/28 01:26:29;;;;;;;5;4.500001;;;;;;;1.2;96.4248;94474.64;;;;
2020/02/28 01:27:31;;;;;;;5;4.500001;;;;;;;1.2;96.4248;94474.64;;;;
2020/02/28 01:28:33;;;;;;;5;4.500001;;;;;;;1.2;96.4248;94474.64;;;;
2020/02/28 01:29:34;;;;;;;5;4.500001;;;;;;;1.2;96.4248;94474.64;;;;
2020/02/28 01:30:35;;;;;;;5;4.500001;;;;;;;1.2;96.4248;94474.64;;;;
2020/02/28 01:31:41;;;;;;;5;4.500001;;;;;;;1.2;96.4248;94474.64;;;;
2020/02/28 01:33:15;;;;;;;5.65;5.15;;;;;;;1.21;96.87402;94491.8;;;;
2020/02/28 01:34:19;;;;;;;5.65;5.15;;;;;;;1.21;96.87402;94491.8;;;;
2020/02/28 01:35:20;;;;;;;5.65;5.15;;;;;;;1.21;96.87402;94491.8;;;;
2020/02/28 01:36:21;;;;;;;5.65;5.15;;;;;;;1.21;96.87402;94491.8;;;;
2020/02/28 01:37:21;;;;;;;5.65;5.15;;;;;;;1.21;96.87402;94491.8;;;;
2020/02/28 01:38:22;;;;;;;5.65;5.15;;;;;;;1.21;96.87402;94491.8;;;;
2020/02/28 01:39:26;;;;;;;5.65;5.15;;;;;;;1.21;96.87402;94491.8;;;;
2020/02/28 01:40:49;;;;;;;5.65;5.15;;;;;;;1.21;96.87402;94491.8;;;;
2020/02/28 01:41:49;;;;;;;5.65;5.15;;;;;;;1.21;96.87402;94491.8;;;;
2020/02/28 01:42:50;;;;;;;5.4;4.899999;;;;;;;1.15;96.87207;94506.7;;;;
2020/02/28 01:43:50;;;;;;;5.4;4.899999;;;;;;;1.15;96.87207;94506.7;;;;
2020/02/28 01:44:52;;;;;;;5.4;4.899999;;;;;;;1.15;96.87207;94506.7;;;;
2020/02/28 01:45:53;;;;;;;5.4;4.899999;;;;;;;1.15;96.87207;94506.7;;;;
2020/02/28 01:46:54;;;;;;;5.4;4.899999;;;;;;;1.15;96.87207;94506.7;;;;
2020/02/28 01:47:55;;;;;;;5.4;4.899999;;;;;;;1.15;96.87207;94506.7;;;;
2020/02/28 01:48:55;;;;;;;5.4;4.899999;;;;;;;1.15;96.87207;94506.7;;;;
2020/02/28 01:49:56;;;;;;;5.4;4.899999;;;;;;;1.15;96.87207;94506.7;;;;
2020/02/28 01:50:56;;;;;;;5.4;4.899999;;;;;;;1.15;96.87207;94506.7;;;;
2020/02/28 01:51:57;;;;;;;5.4;4.899999;;;;;;;1.15;96.87207;94506.7;;;;
2020/02/28 01:52:58;;;;;;;5.4;4.899999;;;;;;;1.15;96.87207;94506.7;;;;
2020/02/28 01:53:58;;;;;;;4.6;4.200001;;;;;;;1.19;97.14063;94514.18;;;;
2020/02/28 01:54:59;;;;;;;4.6;4.200001;;;;;;;1.19;97.14063;94514.18;;;;
2020/02/28 01:55:59;;;;;;;4.6;4.200001;;;;;;;1.19;97.14063;94514.18;;;;
2020/02/28 01:57:00;;;;;;;4.6;4.200001;;;;;;;1.19;97.14063;94514.18;;;;
2020/02/28 01:58:01;;;;;;;4.6;4.200001;;;;;;;1.19;97.14063;94514.18;;;;
2020/02/28 01:59:02;;;;;;;4.6;4.200001;;;;;;;1.19;97.14063;94514.18;;;;
2020/02/28 02:00:02;;;;;;;4.6;4.200001;;;;;;;1.19;97.14063;94514.18;;;;
2020/02/28 02:01:09;;;;;;;4.6;4.200001;;;;;;;1.19;97.14063;94514.18;;;;
2020/02/28 02:02:10;;;;;;;4.6;4.200001;;;;;;;1.19;97.14063;94514.18;;;;
2020/02/28 02:03:11;;;;;;;4.6;4.200001;;;;;;;1.19;97.14063;94514.18;;;;
2020/02/28 02:04:14;;;;;;;4.7;4.3;;;;;;;1.15;97.43262;94534.61;;;;
2020/02/28 02:05:14;;;;;;;4.7;4.3;;;;;;;1.15;97.43262;94534.61;;;;
2020/02/28 02:06:15;;;;;;;4.7;4.3;;;;;;;1.15;97.43262;94534.61;;;;
2020/02/28 02:07:16;;;;;;;4.7;4.3;;;;;;;1.15;97.43262;94534.61;;;;
2020/02/28 02:08:16;;;;;;;4.7;4.3;;;;;;;1.15;97.43262;94534.61;;;;
2020/02/28 02:09:17;;;;;;;4.7;4.3;;;;;;;1.15;97.43262;94534.61;;;;
2020/02/28 02:10:18;;;;;;;4.7;4.3;;;;;;;1.15;97.43262;94534.61;;;;
2020/02/28 02:11:18;;;;;;;4.7;4.3;;;;;;;1.15;97.43262;94534.61;;;;
2020/02/28 02:12:19;;;;;;;4.7;4.3;;;;;;;1.15;97.43262;94534.61;;;;
2020/02/28 02:13:19;;;;;;;4.7;4.3;;;;;;;1.15;97.43262;94534.61;;;;
2020/02/28 02:14:22;;;;;;;4.45;4.05;;;;;;;1.16;97.58105;94549.56;;;;
2020/02/28 02:15:22;;;;;;;4.45;4.05;;;;;;;1.16;97.58105;94549.56;;;;
2020/02/28 02:16:23;;;;;;;4.45;4.05;;;;;;;1.16;97.58105;94549.56;;;;
2020/02/28 02:17:24;;;;;;;4.45;4.05;;;;;;;1.16;97.58105;94549.56;;;;
2020/02/28 02:18:25;;;;;;;4.45;4.05;;;;;;;1.16;97.58105;94549.56;;;;
2020/02/28 02:19:26;;;;;;;4.45;4.05;;;;;;;1.16;97.58105;94549.56;;;;
2020/02/28 02:20:26;;;;;;;4.45;4.05;;;;;;;1.16;97.58105;94549.56;;;;
2020/02/28 02:21:27;;;;;;;4.45;4.05;;;;;;;1.16;97.58105;94549.56;;;;
2020/02/28 02:22:28;;;;;;;4.45;4.05;;;;;;;1.16;97.58105;94549.56;;;;
2020/02/28 02:23:28;;;;;;;4.45;4.05;;;;;;;1.16;97.58105;94549.56;;;;
2020/02/28 02:24:29;;;;;;;4.45;4.05;;;;;;;1.16;97.58105;94549.56;;;;
2020/02/28 02:25:30;;;;;;;4.650001;4.200001;;;;;;;1.08;97.65527;94562.59;;;;
2020/02/28 02:26:30;;;;;;;4.650001;4.200001;;;;;;;1.08;97.65527;94562.59;;;;
2020/02/28 02:27:31;;;;;;;4.650001;4.200001;;;;;;;1.08;97.65527;94562.59;;;;
2020/02/28 02:28:32;;;;;;;4.650001;4.200001;;;;;;;1.08;97.65527;94562.59;;;;
2020/02/28 02:29:33;;;;;;;4.650001;4.200001;;;;;;;1.08;97.65527;94562.59;;;;
2020/02/28 02:30:33;;;;;;;4.650001;4.200001;;;;;;;1.08;97.65527;94562.59;;;;
2020/02/28 02:31:34;;;;;;;4.650001;4.200001;;;;;;;1.08;97.65527;94562.59;;;;
2020/02/28 02:32:34;;;;;;;4.650001;4.200001;;;;;;;1.08;97.65527;94562.59;;;;
2020/02/28 02:33:35;;;;;;;4.650001;4.200001;;;;;;;1.08;97.65527;94562.59;;;;
2020/02/28 02:34:35;;;;;;;4.650001;4.200001;;;;;;;1.08;97.65527;94562.59;;;;
2020/02/28 02:35:36;;;;;;;4.35;3.95;;;;;;;1.08;98.12305;94591.03;;;;
2020/02/28 02:36:37;;;;;;;4.35;3.95;;;;;;;1.08;98.12305;94591.03;;;;
2020/02/28 02:37:38;;;;;;;4.35;3.95;;;;;;;1.08;98.12305;94591.03;;;;
2020/02/28 02:38:39;;;;;;;4.35;3.95;;;;;;;1.08;98.12305;94591.03;;;;
2020/02/28 02:39:40;;;;;;;4.35;3.95;;;;;;;1.08;98.12305;94591.03;;;;
2020/02/28 02:40:47;;;;;;;4.35;3.95;;;;;;;1.08;98.12305;94591.03;;;;
2020/02/28 02:41:51;;;;;;;4.35;3.95;;;;;;;1.08;98.12305;94591.03;;;;
2020/02/28 02:44:56;;;;;;;4.35;3.95;;;;;;;1.08;98.12305;94591.03;;;;
2020/02/28 02:45:57;;;;;;;4.35;3.95;;;;;;;1.08;98.12305;94591.03;;;;
2020/02/28 02:46:58;;;;;;;4;3.65;;;;;;;1;98.28223;94619.41;;;;
2020/02/28 02:47:58;;;;;;;4;3.65;;;;;;;1;98.28223;94619.41;;;;
2020/02/28 02:48:59;;;;;;;4;3.65;;;;;;;1;98.28223;94619.41;;;;
2020/02/28 02:50:01;;;;;;;4;3.65;;;;;;;1;98.28223;94619.41;;;;
2020/02/28 02:51:01;;;;;;;4;3.65;;;;;;;1;98.28223;94619.41;;;;
2020/02/28 02:52:03;;;;;;;4;3.65;;;;;;;1;98.28223;94619.41;;;;
2020/02/28 02:53:03;;;;;;;4;3.65;;;;;;;1;98.28223;94619.41;;;;
2020/02/28 02:54:04;;;;;;;4;3.65;;;;;;;1;98.28223;94619.41;;;;
2020/02/28 02:55:05;;;;;;;4;3.65;;;;;;;1;98.28223;94619.41;;;;
2020/02/28 02:56:12;;;;;;;4;3.65;;;;;;;1;98.28223;94619.41;;;;
2020/02/28 02:57:13;;;;;;;4.35;3.65;;;;;;;1.02;98.71191;94643.95;;;;
2020/02/28 02:58:13;;;;;;;4.35;3.65;;;;;;;1.02;98.71191;94643.95;;;;
2020/02/28 02:59:15;;;;;;;4.35;3.65;;;;;;;1.02;98.71191;94643.95;;;;
2020/02/28 03:00:15;;;;;;;4.35;3.65;;;;;;;1.02;98.71191;94643.95;;;;
2020/02/28 03:01:16;;;;;;;4.35;3.65;;;;;;;1.02;98.71191;94643.95;;;;
2020/02/28 03:02:22;;;;;;;4.35;3.65;;;;;;;1.02;98.71191;94643.95;;;;
2020/02/28 03:03:22;;;;;;;4.35;3.65;;;;;;;1.02;98.71191;94643.95;;;;
2020/02/28 03:04:24;;;;;;;4.35;3.65;;;;;;;1.02;98.71191;94643.95;;;;
2020/02/28 03:05:25;;;;;;;4.35;3.65;;;;;;;1.02;98.71191;94643.95;;;;
2020/02/28 03:06:25;;;;;;;4.35;3.65;;;;;;;1.02;98.71191;94643.95;;;;
2020/02/28 03:07:26;;;;;;;3.55;3.25;;;;;;;0.95;98.82129;94673.61;;;;
2020/02/28 03:08:27;;;;;;;3.55;3.25;;;;;;;0.95;98.82129;94673.61;;;;
2020/02/28 03:09:28;;;;;;;3.55;3.25;;;;;;;0.95;98.82129;94673.61;;;;
2020/02/28 03:10:29;;;;;;;3.55;3.25;;;;;;;0.95;98.82129;94673.61;;;;
2020/02/28 03:11:30;;;;;;;3.55;3.25;;;;;;;0.95;98.82129;94673.61;;;;
2020/02/28 03:12:32;;;;;;;3.55;3.25;;;;;;;0.95;98.82129;94673.61;;;;
2020/02/28 03:13:32;;;;;;;3.55;3.25;;;;;;;0.95;98.82129;94673.61;;;;
2020/02/28 03:14:33;;;;;;;3.55;3.25;;;;;;;0.95;98.82129;94673.61;;;;
2020/02/28 03:15:34;;;;;;;3.55;3.25;;;;;;;0.95;98.82129;94673.61;;;;
2020/02/28 03:16:35;;;;;;;3.55;3.25;;;;;;;0.95;98.82129;94673.61;;;;
2020/02/28 03:17:35;;;;;;;3.55;3.25;;;;;;;0.95;98.82129;94673.61;;;;
2020/02/28 03:18:36;;;;;;;3.55;3.25;;;;;;;0.95;98.82129;94673.61;;;;
2020/02/28 03:19:36;;;;;;;3.55;3.25;;;;;;;0.95;98.82129;94673.61;;;;
2020/02/28 03:20:37;;;;;;;3.55;3.25;;;;;;;0.95;98.82129;94673.61;;;;
2020/02/28 03:21:38;;;;;;;3.55;3.25;;;;;;;0.95;98.82129;94673.61;;;;
2020/02/28 03:22:39;;;;;;;3.55;3.25;;;;;;;0.95;98.82129;94673.61;;;;
2020/02/28 03:23:39;;;;;;;3.55;3.25;;;;;;;0.95;98.82129;94673.61;;;;
2020/02/28 03:24:40;;;;;;;3.55;3.25;;;;;;;0.95;98.82129;94673.61;;;;
2020/02/28 03:25:40;;;;;;;3.55;3.25;;;;;;;0.95;98.82129;94673.61;;;;
2020/02/28 03:26:41;;;;;;;3.55;3.25;;;;;;;0.95;98.82129;94673.61;;;;
2020/02/28 03:27:42;;;;;;;3.55;3.25;;;;;;;0.95;98.82129;94673.61;;;;
2020/02/28 03:28:42;;;;;;;3.55;3.25;;;;;;;0.95;98.82129;94673.61;;;;
2020/02/28 03:29:43;;;;;;;3.299999;3;;;;;;;1;98.99902;94751.45;;;;
2020/02/28 03:30:43;;;;;;;3.299999;3;;;;;;;1;98.99902;94751.45;;;;
2020/02/28 03:31:44;;;;;;;3.299999;3;;;;;;;1;98.99902;94751.45;;;;
2020/02/28 03:32:44;;;;;;;3.299999;3;;;;;;;1;98.99902;94751.45;;;;
2020/02/28 03:33:45;;;;;;;3.299999;3;;;;;;;1;98.99902;94751.45;;;;
2020/02/28 03:34:46;;;;;;;3.299999;3;;;;;;;1;98.99902;94751.45;;;;
2020/02/28 03:35:55;;;;;;;3.299999;3;;;;;;;1;98.99902;94751.45;;;;
2020/02/28 03:36:56;;;;;;;3.299999;3;;;;;;;1;98.99902;94751.45;;;;
2020/02/28 03:37:58;;;;;;;3.299999;3;;;;;;;1;98.99902;94751.45;;;;
2020/02/28 03:39:01;;;;;;;3.299999;3;;;;;;;1;98.99902;94751.45;;;;
2020/02/28 03:40:01;;;;;;;3.2;2.9;;;;;;;1;99.33105;94776.29;;;;
2020/02/28 03:41:03;;;;;;;3.2;2.9;;;;;;;1;99.33105;94776.29;;;;
2020/02/28 03:42:05;;;;;;;3.2;2.9;;;;;;;1;99.33105;94776.29;;;;
2020/02/28 03:43:07;;;;;;;3.2;2.9;;;;;;;1;99.33105;94776.29;;;;
2020/02/28 03:44:08;;;;;;;3.2;2.9;;;;;;;1;99.33105;94776.29;;;;
2020/02/28 03:45:08;;;;;;;3.2;2.9;;;;;;;1;99.33105;94776.29;;;;
2020/02/28 03:46:12;;;;;;;3.2;2.9;;;;;;;1;99.33105;94776.29;;;;
2020/02/28 03:47:13;;;;;;;3.2;2.9;;;;;;;1;99.33105;94776.29;;;;
2020/02/28 03:48:14;;;;;;;3.2;2.9;;;;;;;1;99.33105;94776.29;;;;
2020/02/28 03:49:18;;;;;;;3.2;2.9;;;;;;;1;99.33105;94776.29;;;;
2020/02/28 03:50:19;;;;;;;3.5;2.95;;;;;;;0.96;99.05273;94814.37;;;;
2020/02/28 03:51:24;;;;;;;3.5;2.95;;;;;;;0.96;99.05273;94814.37;;;;
2020/02/28 03:52:25;;;;;;;3.5;2.95;;;;;;;0.96;99.05273;94814.37;;;;
2020/02/28 03:53:27;;;;;;;3.5;2.95;;;;;;;0.96;99.05273;94814.37;;;;
2020/02/28 03:54:34;;;;;;;3.5;2.95;;;;;;;0.96;99.05273;94814.37;;;;
2020/02/28 03:55:34;;;;;;;3.5;2.95;;;;;;;0.96;99.05273;94814.37;;;;
2020/02/28 03:56:35;;;;;;;3.5;2.95;;;;;;;0.96;99.05273;94814.37;;;;
2020/02/28 03:57:39;;;;;;;3.5;2.95;;;;;;;0.96;99.05273;94814.37;;;;
2020/02/28 03:58:43;;;;;;;3.5;2.95;;;;;;;0.96;99.05273;94814.37;;;;
2020/02/28 03:59:44;;;;;;;3.5;2.95;;;;;;;0.96;99.05273;94814.37;;;;
2020/02/28 04:00:45;;;;;;;3.649999;3.35;;;;;;;1.01;98.86621;94822.61;;;;
2020/02/28 04:01:47;;;;;;;3.649999;3.35;;;;;;;1.01;98.86621;94822.61;;;;
2020/02/28 04:02:49;;;;;;;3.649999;3.35;;;;;;;1.01;98.86621;94822.61;;;;
2020/02/28 04:03:51;;;;;;;3.649999;3.35;;;;;;;1.01;98.86621;94822.61;;;;
2020/02/28 04:04:56;;;;;;;3.649999;3.35;;;;;;;1.01;98.86621;94822.61;;;;
2020/02/28 04:05:57;;;;;;;3.649999;3.35;;;;;;;1.01;98.86621;94822.61;;;;
2020/02/28 04:06:58;;;;;;;3.649999;3.35;;;;;;;1.01;98.86621;94822.61;;;;
2020/02/28 04:08:01;;;;;;;3.649999;3.35;;;;;;;1.01;98.86621;94822.61;;;;
2020/02/28 04:09:05;;;;;;;3.649999;3.35;;;;;;;1.01;98.86621;94822.61;;;;
2020/02/28 04:15:37;;;;;;;4.05;3.65;;;;;;;0.97;98.72168;94868.36;;;;
2020/02/28 04:16:38;;;;;;;4.05;3.65;;;;;;;0.97;98.72168;94868.36;;;;
2020/02/28 04:17:41;;;;;;;4.05;3.65;;;;;;;0.97;98.72168;94868.36;;;;
2020/02/28 04:18:41;;;;;;;4.05;3.65;;;;;;;0.97;98.72168;94868.36;;;;
2020/02/28 04:19:42;;;;;;;4.05;3.65;;;;;;;0.97;98.72168;94868.36;;;;
2020/02/28 04:20:43;;;;;;;4.05;3.65;;;;;;;0.97;98.72168;94868.36;;;;
2020/02/28 04:21:43;;;;;;;4.05;3.65;;;;;;;0.97;98.72168;94868.36;;;;
2020/02/28 04:22:44;;;;;;;3.5;3.2;;;;;;;1.01;98.75195;94896.22;;;;
2020/02/28 04:23:45;;;;;;;3.5;3.2;;;;;;;1.01;98.75195;94896.22;;;;
2020/02/28 04:24:46;;;;;;;3.5;3.2;;;;;;;1.01;98.75195;94896.22;;;;
2020/02/28 04:25:47;;;;;;;3.5;3.2;;;;;;;1.01;98.75195;94896.22;;;;
2020/02/28 04:26:48;;;;;;;3.5;3.2;;;;;;;1.01;98.75195;94896.22;;;;
2020/02/28 04:27:50;;;;;;;3.5;3.2;;;;;;;1.01;98.75195;94896.22;;;;
2020/02/28 04:28:51;;;;;;;3.5;3.2;;;;;;;1.01;98.75195;94896.22;;;;
2020/02/28 04:29:53;;;;;;;3.5;3.2;;;;;;;1.01;98.75195;94896.22;;;;
2020/02/28 04:30:57;;;;;;;3.5;3.2;;;;;;;1.01;98.75195;94896.22;;;;
2020/02/28 04:31:57;;;;;;;3.5;3.2;;;;;;;1.01;98.75195;94896.22;;;;
2020/02/28 04:33:04;;;;;;;3.65;3.3;;;;;;;1;98.54199;94940.16;;;;
2020/02/28 04:34:05;;;;;;;3.65;3.3;;;;;;;1;98.54199;94940.16;;;;
2020/02/28 04:35:06;;;;;;;3.65;3.3;;;;;;;1;98.54199;94940.16;;;;
2020/02/28 04:36:07;;;;;;;3.65;3.3;;;;;;;1;98.54199;94940.16;;;;
2020/02/28 04:37:08;;;;;;;3.65;3.3;;;;;;;1;98.54199;94940.16;;;;
2020/02/28 04:38:09;;;;;;;3.65;3.3;;;;;;;1;98.54199;94940.16;;;;
2020/02/28 04:39:12;;;;;;;3.65;3.3;;;;;;;1;98.54199;94940.16;;;;
2020/02/28 04:40:21;;;;;;;3.65;3.3;;;;;;;1;98.54199;94940.16;;;;
2020/02/28 04:41:23;;;;;;;3.65;3.3;;;;;;;1;98.54199;94940.16;;;;
2020/02/28 04:42:23;;;;;;;3.65;3.3;;;;;;;1;98.54199;94940.16;;;;
2020/02/28 04:43:24;;;;;;;3.35;3.05;;;;;;;0.96;98.55371;94960.55;;;;
2020/02/28 04:44:25;;;;;;;3.35;3.05;;;;;;;0.96;98.55371;94960.55;;;;
2020/02/28 04:45:26;;;;;;;3.35;3.05;;;;;;;0.96;98.55371;94960.55;;;;
2020/02/28 04:46:27;;;;;;;3.35;3.05;;;;;;;0.96;98.55371;94960.55;;;;
2020/02/28 04:47:30;;;;;;;3.35;3.05;;;;;;;0.96;98.55371;94960.55;;;;
2020/02/28 04:48:30;;;;;;;3.35;3.05;;;;;;;0.96;98.55371;94960.55;;;;
2020/02/28 04:49:32;;;;;;;3.35;3.05;;;;;;;0.96;98.55371;94960.55;;;;
2020/02/28 04:50:32;;;;;;;3.35;3.05;;;;;;;0.96;98.55371;94960.55;;;;
2020/02/28 04:51:34;;;;;;;3.35;3.05;;;;;;;0.96;98.55371;94960.55;;;;
2020/02/28 04:52:35;;;;;;;3.35;3.05;;;;;;;0.96;98.55371;94960.55;;;;
2020/02/28 04:53:36;;;;;;;3.35;3.05;;;;;;;0.96;98.55371;94960.55;;;;
2020/02/28 04:54:37;;;;;;;2.65;2.4;;;;;;;0.91;98.08398;95008.12;;;;
2020/02/28 04:55:38;;;;;;;2.65;2.4;;;;;;;0.91;98.08398;95008.12;;;;
2020/02/28 04:56:38;;;;;;;2.65;2.4;;;;;;;0.91;98.08398;95008.12;;;;
2020/02/28 04:57:39;;;;;;;2.65;2.4;;;;;;;0.91;98.08398;95008.12;;;;
2020/02/28 04:58:41;;;;;;;2.65;2.4;;;;;;;0.91;98.08398;95008.12;;;;
2020/02/28 04:59:42;;;;;;;2.65;2.4;;;;;;;0.91;98.08398;95008.12;;;;
2020/02/28 05:00:46;;;;;;;2.65;2.4;;;;;;;0.91;98.08398;95008.12;;;;
2020/02/28 05:01:49;;;;;;;2.65;2.4;;;;;;;0.91;98.08398;95008.12;;;;
2020/02/28 05:02:49;;;;;;;2.65;2.4;;;;;;;0.91;98.08398;95008.12;;;;
2020/02/28 05:03:51;;;;;;;2.65;2.4;;;;;;;0.91;98.08398;95008.12;;;;
2020/02/28 05:04:53;;;;;;;3.2;2.85;;;;;;;0.89;97.96484;95034.97;;;;
2020/02/28 05:05:54;;;;;;;3.2;2.85;;;;;;;0.89;97.96484;95034.97;;;;
2020/02/28 05:06:55;;;;;;;3.2;2.85;;;;;;;0.89;97.96484;95034.97;;;;
2020/02/28 05:07:56;;;;;;;3.2;2.85;;;;;;;0.89;97.96484;95034.97;;;;
2020/02/28 05:08:57;;;;;;;3.2;2.85;;;;;;;0.89;97.96484;95034.97;;;;
2020/02/28 05:09:57;;;;;;;3.2;2.85;;;;;;;0.89;97.96484;95034.97;;;;
2020/02/28 05:10:58;;;;;;;3.2;2.85;;;;;;;0.89;97.96484;95034.97;;;;
2020/02/28 05:11:59;;;;;;;3.2;2.85;;;;;;;0.89;97.96484;95034.97;;;;
2020/02/28 05:13:04;;;;;;;3.2;2.85;;;;;;;0.89;97.96484;95034.97;;;;
2020/02/28 05:14:05;;;;;;;3.2;2.85;;;;;;;0.89;97.96484;95034.97;;;;
2020/02/28 05:15:08;;;;;;;3.8;2.55;;;;;;;0.78;97.72168;95057.58;;;;
2020/02/28 05:16:09;;;;;;;3.8;2.55;;;;;;;0.78;97.72168;95057.58;;;;
2020/02/28 05:17:10;;;;;;;3.8;2.55;;;;;;;0.78;97.72168;95057.58;;;;
2020/02/28 05:18:12;;;;;;;3.8;2.55;;;;;;;0.78;97.72168;95057.58;;;;
2020/02/28 05:19:15;;;;;;;3.8;2.55;;;;;;;0.78;97.72168;95057.58;;;;
2020/02/28 05:20:16;;;;;;;3.8;2.55;;;;;;;0.78;97.72168;95057.58;;;;
2020/02/28 05:21:16;;;;;;;3.8;2.55;;;;;;;0.78;97.72168;95057.58;;;;
2020/02/28 05:22:17;;;;;;;3.8;2.55;;;;;;;0.78;97.72168;95057.58;;;;
2020/02/28 05:23:21;;;;;;;3.8;2.55;;;;;;;0.78;97.72168;95057.58;;;;
2020/02/28 05:24:21;;;;;;;3.8;2.55;;;;;;;0.78;97.72168;95057.58;;;;
2020/02/28 05:25:22;;;;;;;3.8;2.55;;;;;;;0.78;97.72168;95057.58;;;;
2020/02/28 05:26:22;;;;;;;4;2.75;;;;;;;0.74;97.97461;95072.16;;;;
2020/02/28 05:27:22;;;;;;;4;2.75;;;;;;;0.74;97.97461;95072.16;;;;
2020/02/28 05:28:23;;;;;;;4;2.75;;;;;;;0.74;97.97461;95072.16;;;;
2020/02/28 05:29:25;;;;;;;4;2.75;;;;;;;0.74;97.97461;95072.16;;;;
2020/02/28 05:30:25;;;;;;;4;2.75;;;;;;;0.74;97.97461;95072.16;;;;
2020/02/28 05:31:26;;;;;;;4;2.75;;;;;;;0.74;97.97461;95072.16;;;;
2020/02/28 05:32:27;;;;;;;4;2.75;;;;;;;0.74;97.97461;95072.16;;;;
2020/02/28 05:33:28;;;;;;;4;2.75;;;;;;;0.74;97.97461;95072.16;;;;
2020/02/28 05:34:28;;;;;;;4;2.75;;;;;;;0.74;97.97461;95072.16;;;;
2020/02/28 05:35:31;;;;;;;4;2.75;;;;;;;0.74;97.97461;95072.16;;;;
2020/02/28 05:36:32;;;;;;;2.9;2.6;;;;;;;0.7;97.73535;95113.89;;;;
2020/02/28 05:37:34;;;;;;;2.9;2.6;;;;;;;0.7;97.73535;95113.89;;;;
2020/02/28 05:38:34;;;;;;;2.9;2.6;;;;;;;0.7;97.73535;95113.89;;;;
2020/02/28 05:39:34;;;;;;;2.9;2.6;;;;;;;0.7;97.73535;95113.89;;;;
2020/02/28 05:40:38;;;;;;;2.9;2.6;;;;;;;0.7;97.73535;95113.89;;;;
2020/02/28 05:41:40;;;;;;;2.9;2.6;;;;;;;0.7;97.73535;95113.89;;;;
2020/02/28 05:42:41;;;;;;;2.9;2.6;;;;;;;0.7;97.73535;95113.89;;;;
2020/02/28 05:43:42;;;;;;;2.9;2.6;;;;;;;0.7;97.73535;95113.89;;;;
2020/02/28 05:44:42;;;;;;;2.9;2.6;;;;;;;0.7;97.73535;95113.89;;;;
2020/02/28 05:45:44;;;;;;;2.9;2.6;;;;;;;0.7;97.73535;95113.89;;;;
2020/02/28 05:46:44;;;;;;;2.9;2.6;;;;;;;0.7;97.73535;95113.89;;;;
2020/02/28 05:47:45;;;;;;;4.45;2.5;;;;;;;0.73;97.68164;95127.64;;;;
2020/02/28 05:48:46;;;;;;;4.45;2.5;;;;;;;0.73;97.68164;95127.64;;;;
2020/02/28 05:49:46;;;;;;;4.45;2.5;;;;;;;0.73;97.68164;95127.64;;;;
2020/02/28 05:50:47;;;;;;;4.45;2.5;;;;;;;0.73;97.68164;95127.64;;;;
2020/02/28 05:51:48;;;;;;;4.45;2.5;;;;;;;0.73;97.68164;95127.64;;;;
2020/02/28 05:52:49;;;;;;;4.45;2.5;;;;;;;0.73;97.68164;95127.64;;;;
2020/02/28 05:53:53;;;;;;;4.45;2.5;;;;;;;0.73;97.68164;95127.64;;;;
2020/02/28 05:54:54;;;;;;;4.45;2.5;;;;;;;0.73;97.68164;95127.64;;;;
2020/02/28 05:55:56;;;;;;;4.45;2.5;;;;;;;0.73;97.68164;95127.64;;;;
2020/02/28 05:56:57;;;;;;;4.45;2.5;;;;;;;0.73;97.68164;95127.64;;;;
2020/02/28 05:57:59;;;;;;;4.200001;2.35;;;;;;;0.67;97.46875;95135.9;;;;
2020/02/28 05:59:00;;;;;;;4.200001;2.35;;;;;;;0.67;97.46875;95135.9;;;;
2020/02/28 06:00:03;;;;;;;4.200001;2.35;;;;;;;0.67;97.46875;95135.9;;;;
2020/02/28 06:01:10;;;;;;;4.200001;2.35;;;;;;;0.67;97.46875;95135.9;;;;
2020/02/28 06:02:11;;;;;;;4.200001;2.35;;;;;;;0.67;97.46875;95135.9;;;;
2020/02/28 06:03:11;;;;;;;4.200001;2.35;;;;;;;0.67;97.46875;95135.9;;;;
2020/02/28 06:04:12;;;;;;;4.200001;2.35;;;;;;;0.67;97.46875;95135.9;;;;
2020/02/28 06:05:13;;;;;;;4.200001;2.35;;;;;;;0.67;97.46875;95135.9;;;;
2020/02/28 06:06:13;;;;;;;4.200001;2.35;;;;;;;0.67;97.46875;95135.9;;;;